createdAt,value
2019-03-29T00:03:28.632Z,6.20
2019-03-29T00:08:29.738Z,6.07
2019-03-29T00:13:30.920Z,6.30
2019-03-29T00:18:32.019Z,6.70
2019-03-29T00:23:33.120Z,7.20
2019-03-29T00:28:34.240Z,8.47
2019-03-29T00:33:35.407Z,9.07
2019-03-29T00:38:36.508Z,9.83
2019-03-29T00:43:37.656Z,8.73
2019-03-29T00:48:38.750Z,9.07
2019-03-29T00:53:39.839Z,9.40
2019-03-29T00:58:40.968Z,10.07
2019-03-29T01:03:42.069Z,9.60
2019-03-29T01:08:43.360Z,9.30
2019-03-29T01:13:44.465Z,10.50
2019-03-29T01:18:45.556Z,10.73
2019-03-29T01:23:46.643Z,10.37
2019-03-29T01:28:47.754Z,10.20
2019-03-29T01:33:48.864Z,9.67
2019-03-29T01:38:50.542Z,9.07
2019-03-29T01:43:52.250Z,8.87
2019-03-29T01:48:53.331Z,9.03
2019-03-29T01:53:54.440Z,9.53
2019-03-29T01:58:55.559Z,9.27
2019-03-29T02:03:56.650Z,9.30
2019-03-29T02:08:57.748Z,8.90
2019-03-29T02:13:58.851Z,8.80
2019-03-29T02:18:59.931Z,9.37
2019-03-29T02:24:01.033Z,10.10
2019-03-29T02:29:02.439Z,9.33
2019-03-29T02:34:03.515Z,9.50
2019-03-29T02:39:05.222Z,9.57
2019-03-29T02:44:06.591Z,9.93
2019-03-29T02:49:08.828Z,9.77
2019-03-29T02:54:09.922Z,10.83
2019-03-29T02:59:11.052Z,10.30
2019-03-29T03:04:12.172Z,10.50
2019-03-29T03:09:14.698Z,10.07
2019-03-29T03:14:16.082Z,10.23
2019-03-29T03:19:17.386Z,10.50
2019-03-29T03:24:18.461Z,9.87
2019-03-29T03:29:19.631Z,9.67
2019-03-29T03:34:20.912Z,10.43
2019-03-29T03:39:31.663Z,11.07
2019-03-29T03:44:25.172Z,12.07
2019-03-29T03:49:26.289Z,12.13
2019-03-29T03:54:27.488Z,12.63
2019-03-29T03:59:29.709Z,12.37
2019-03-29T04:04:30.896Z,11.97
2019-03-29T04:09:48.511Z,12.13
2019-03-29T04:14:35.013Z,13.03
2019-03-29T04:19:36.111Z,12.47
2019-03-29T04:24:37.203Z,13.40
2019-03-29T04:29:38.304Z,13.00
2019-03-29T04:34:39.396Z,13.40
2019-03-29T04:39:40.499Z,14.30
2019-03-29T04:44:41.601Z,13.67
2019-03-29T04:49:42.795Z,13.63
2019-03-29T04:54:45.050Z,13.73
2019-03-29T04:59:46.160Z,13.83
2019-03-29T05:04:47.266Z,12.80
2019-03-29T05:09:48.364Z,12.53
2019-03-29T05:14:49.444Z,13.27
2019-03-29T05:19:50.627Z,12.97
2019-03-29T05:24:51.725Z,12.93
2019-03-29T05:29:52.819Z,13.53
2019-03-29T05:34:53.921Z,13.30
2019-03-29T05:39:55.007Z,12.07
2019-03-29T05:44:56.125Z,13.43
2019-03-29T05:49:57.218Z,13.20
2019-03-29T05:54:58.663Z,13.97
2019-03-29T05:59:59.775Z,13.57
2019-03-29T06:05:00.865Z,14.03
2019-03-29T06:10:04.258Z,13.40
2019-03-29T06:15:06.082Z,13.33
2019-03-29T06:20:07.477Z,14.93
2019-03-29T06:25:08.772Z,16.00
2019-03-29T06:30:10.095Z,15.17
2019-03-29T06:35:11.487Z,16.73
2019-03-29T06:40:24.013Z,17.00
2019-03-29T06:45:25.136Z,16.77
2019-03-29T06:50:26.227Z,16.00
2019-03-29T06:55:27.331Z,15.77
2019-03-29T07:00:28.454Z,15.27
2019-03-29T07:05:29.645Z,16.20
2019-03-29T07:10:30.751Z,14.80
2019-03-29T07:15:31.870Z,16.37
2019-03-29T07:20:32.959Z,15.33
2019-03-29T07:25:34.060Z,15.40
2019-03-29T07:30:35.147Z,16.13
2019-03-29T07:35:36.243Z,15.07
2019-03-29T07:40:37.345Z,15.27
2019-03-29T07:45:38.470Z,13.63
2019-03-29T07:50:39.569Z,14.37
2019-03-29T07:55:40.640Z,14.40
2019-03-29T08:00:42.524Z,13.37
2019-03-29T08:05:45.169Z,12.57
2019-03-29T08:10:46.493Z,11.60
2019-03-29T08:15:47.559Z,11.67
2019-03-29T08:20:48.655Z,10.73
2019-03-29T08:25:49.746Z,11.20
2019-03-29T08:30:50.856Z,9.67
2019-03-29T08:35:51.947Z,9.70
2019-03-29T08:40:53.049Z,9.13
2019-03-29T08:45:57.349Z,8.70
2019-03-29T08:50:57.463Z,7.97
2019-03-29T08:55:58.576Z,8.10
2019-03-29T09:00:59.696Z,7.20
2019-03-29T09:06:01.096Z,8.73
2019-03-29T09:11:02.197Z,6.90
2019-03-29T09:16:03.287Z,6.17
2019-03-29T09:21:04.531Z,6.73
2019-03-29T09:26:05.774Z,6.90
2019-03-29T09:31:07.005Z,6.07
2019-03-29T09:36:08.166Z,6.70
2019-03-29T09:41:09.610Z,6.33
2019-03-29T09:46:10.721Z,5.97
2019-03-29T09:51:11.838Z,6.17
2019-03-29T09:56:12.951Z,5.03
2019-03-29T10:01:14.103Z,5.40
2019-03-29T10:06:15.562Z,6.00
2019-03-29T10:11:16.797Z,5.23
2019-03-29T10:16:17.897Z,5.17
2019-03-29T10:21:18.983Z,4.80
2019-03-29T10:26:20.096Z,4.57
2019-03-29T10:31:31.958Z,5.07
2019-03-29T10:36:24.478Z,5.07
2019-03-29T10:41:25.715Z,5.07
2019-03-29T10:46:26.831Z,4.70
2019-03-29T10:51:28.043Z,4.97
2019-03-29T10:56:34.387Z,4.20
2019-03-29T11:01:32.252Z,4.87
2019-03-29T11:06:33.357Z,5.00
2019-03-29T11:11:34.422Z,5.30
2019-03-29T11:16:35.536Z,4.73
2019-03-29T11:21:36.653Z,4.37
2019-03-29T11:26:37.759Z,5.30
2019-03-29T11:31:38.942Z,4.70
2019-03-29T11:36:40.039Z,4.83
2019-03-29T11:41:41.144Z,5.63
2019-03-29T11:46:42.255Z,4.83
2019-03-29T11:51:43.360Z,5.43
2019-03-29T11:56:47.456Z,5.30
2019-03-29T12:01:47.546Z,6.33
2019-03-29T12:06:48.886Z,6.17
2019-03-29T12:11:50.024Z,6.20
2019-03-29T12:16:51.149Z,5.93
2019-03-29T12:21:52.239Z,6.53
2019-03-29T12:26:54.987Z,7.57
2019-03-29T12:31:56.355Z,6.90
2019-03-29T12:36:57.443Z,6.57
2019-03-29T12:41:58.551Z,6.30
2019-03-29T12:46:59.682Z,6.77
2019-03-29T12:52:00.774Z,6.70
2019-03-29T12:57:01.909Z,6.80
2019-03-29T13:02:03.536Z,7.50
2019-03-29T13:07:04.643Z,7.37
2019-03-29T13:12:05.955Z,7.43
2019-03-29T13:17:07.089Z,7.97
2019-03-29T13:22:09.402Z,6.90
2019-03-29T13:27:10.516Z,7.43
2019-03-29T13:32:11.631Z,6.70
2019-03-29T13:37:12.825Z,6.97
2019-03-29T13:42:13.935Z,7.60
2019-03-29T13:47:17.790Z,7.10
2019-03-29T13:52:19.032Z,6.77
2019-03-29T13:57:20.172Z,7.47
2019-03-29T14:02:21.300Z,7.33
2019-03-29T14:07:22.403Z,7.30
2019-03-29T14:12:23.505Z,7.47
2019-03-29T14:17:24.657Z,7.87
2019-03-29T14:22:25.916Z,7.30
2019-03-29T14:27:27.083Z,7.10
2019-03-29T14:32:28.194Z,7.90
2019-03-29T14:37:29.317Z,6.83
2019-03-29T14:42:30.416Z,7.20
2019-03-29T14:47:41.263Z,6.90
2019-03-29T14:52:34.831Z,7.37
2019-03-29T14:57:35.937Z,7.10
2019-03-29T15:02:37.107Z,6.10
2019-03-29T15:07:40.212Z,7.10
2019-03-29T15:12:41.314Z,7.60
2019-03-29T15:17:42.408Z,7.63
2019-03-29T15:22:43.631Z,7.80
2019-03-29T15:27:44.724Z,7.77
2019-03-29T15:32:45.942Z,7.13
2019-03-29T15:37:47.045Z,7.83
2019-03-29T15:42:48.179Z,7.43
2019-03-29T15:47:49.325Z,8.23
2019-03-29T15:52:50.418Z,7.53
2019-03-29T15:57:51.544Z,7.17
2019-03-29T16:02:52.696Z,7.97
2019-03-29T16:07:53.889Z,8.50
2019-03-29T16:12:55.007Z,8.13
2019-03-29T16:17:56.128Z,8.77
2019-03-29T16:22:57.275Z,8.73
2019-03-29T16:27:58.387Z,7.97
2019-03-29T16:32:59.594Z,8.23
2019-03-29T16:38:00.713Z,8.60
2019-03-29T16:43:01.823Z,8.40
2019-03-29T16:48:06.396Z,8.27
2019-03-29T16:53:06.332Z,8.60
2019-03-29T16:58:07.630Z,9.03
2019-03-29T17:03:08.757Z,10.00
2019-03-29T17:08:09.868Z,8.77
2019-03-29T17:13:10.973Z,9.13
2019-03-29T17:18:12.067Z,9.20
2019-03-29T17:23:13.195Z,10.20
2019-03-29T17:28:14.467Z,8.87
2019-03-29T17:33:15.602Z,11.37
2019-03-29T17:38:16.777Z,11.10
2019-03-29T17:43:17.906Z,10.63
2019-03-29T17:48:19.128Z,9.47
2019-03-29T17:53:20.216Z,9.57
2019-03-29T17:58:21.407Z,9.63
2019-03-29T18:03:22.535Z,9.73
2019-03-29T18:08:23.632Z,11.00
2019-03-29T18:13:24.729Z,14.80
2019-03-29T18:18:25.853Z,9.60
2019-03-29T18:23:26.952Z,11.17
2019-03-29T18:28:28.064Z,12.60
2019-03-29T18:33:29.369Z,11.77
2019-03-29T18:38:31.399Z,12.00
2019-03-29T18:43:32.490Z,12.80
2019-03-29T18:48:33.709Z,12.47
2019-03-29T18:53:34.827Z,12.27
2019-03-29T18:58:35.976Z,13.13
2019-03-29T19:03:37.191Z,12.83
2019-03-29T19:08:38.400Z,12.37
2019-03-29T19:13:39.567Z,11.97
2019-03-29T19:18:40.688Z,12.87
2019-03-29T19:23:41.812Z,13.27
2019-03-29T19:28:43.098Z,13.00
2019-03-29T19:33:44.212Z,12.10
2019-03-29T19:38:45.316Z,13.73
2019-03-29T19:43:46.434Z,10.67
2019-03-29T19:48:47.564Z,11.87
2019-03-29T19:53:48.757Z,11.90
2019-03-29T19:58:50.103Z,12.37
2019-03-29T20:03:51.302Z,11.70
2019-03-29T20:08:52.391Z,11.30
2019-03-29T20:13:53.500Z,12.30
2019-03-29T20:18:54.606Z,12.83
2019-03-29T20:23:55.783Z,13.47
2019-03-29T20:28:56.885Z,13.40
2019-03-29T20:33:57.991Z,13.40
2019-03-29T20:38:59.312Z,13.17
2019-03-29T20:44:00.524Z,13.17
2019-03-29T20:49:01.702Z,12.93
2019-03-29T20:54:03.056Z,13.93
2019-03-29T20:59:04.156Z,14.60
2019-03-29T21:04:05.294Z,14.30
2019-03-29T21:09:06.884Z,14.70
2019-03-29T21:14:07.998Z,14.23
2019-03-29T21:19:09.116Z,14.27
2019-03-29T21:24:10.240Z,15.00
2019-03-29T21:29:11.539Z,14.93
2019-03-29T21:34:12.729Z,15.00
2019-03-29T21:39:14.548Z,14.23
2019-03-29T21:44:15.677Z,14.00
2019-03-29T21:49:16.825Z,15.03
2019-03-29T21:54:18.037Z,14.67
2019-03-29T21:59:19.144Z,14.27
2019-03-29T22:04:20.287Z,15.27
2019-03-29T22:09:21.382Z,15.20
2019-03-29T22:14:22.503Z,14.50
2019-03-29T22:19:23.667Z,14.63
2019-03-29T22:24:24.850Z,15.03
2019-03-29T22:29:26.294Z,15.83
2019-03-29T22:34:27.625Z,14.97
2019-03-29T22:39:28.732Z,14.63
2019-03-29T22:44:29.834Z,17.33
2019-03-29T22:49:30.941Z,16.90
2019-03-29T22:54:32.053Z,17.43
2019-03-29T22:59:33.165Z,16.23
2019-03-29T23:04:34.290Z,16.87
2019-03-29T23:09:35.385Z,15.97
2019-03-29T23:14:36.491Z,15.73
2019-03-29T23:19:37.712Z,15.60
2019-03-29T23:24:38.844Z,15.93
2019-03-29T23:29:39.933Z,15.53
2019-03-29T23:34:41.036Z,15.23
2019-03-29T23:39:42.135Z,14.97
2019-03-29T23:44:43.231Z,14.97
2019-03-29T23:49:44.347Z,14.97
2019-03-29T23:54:45.459Z,15.13
2019-03-29T23:59:46.558Z,14.90
